sensor_id;sensor_type;location;lat;lon;timestamp;pressure;altitude;pressure_sealevel;temperature;humidity
45789;BME280;31492;54.856;26.318;2023-04-09T00:01:01;1031.4;;;8.5;65.6
45789;BME280;31492;54.856;26.318;2023-04-09T00:05:57;1031.4;;;8.4;65.7
45789;BME280;31492;54.856;26.318;2023-04-09T00:10:57;1031.4;;;8.3;65.9
45789;BME280;31492;54.856;26.318;2023-04-09T00:16:09;1031.3;;;8.2;66.7
45789;BME280;31492;54.856;26.318;2023-04-09T00:21:15;1031.3;;;8;67
45789;BME280;31492;54.856;26.318;2023-04-09T00:25:57;1031.3;;;8;66.5
45789;BME280;31492;54.856;26.318;2023-04-09T00:30:57;1031.3;;;8.1;66.2
45789;BME280;31492;54.856;26.318;2023-04-09T00:35:57;1031.3;;;8;66.1
45789;BME280;31492;54.856;26.318;2023-04-09T00:40:57;1031.2;;;7.9;65.8
45789;BME280;31492;54.856;26.318;2023-04-09T00:46:09;1031.2;;;7.9;65.5
45789;BME280;31492;54.856;26.318;2023-04-09T00:50:57;1031.3;;;7.8;66
45789;BME280;31492;54.856;26.318;2023-04-09T00:55:57;1031.3;;;7.7;65.9
45789;BME280;31492;54.856;26.318;2023-04-09T01:00:57;1031.3;;;7.7;65.7
45789;BME280;31492;54.856;26.318;2023-04-09T01:06:11;1031.3;;;7.7;65.2
45789;BME280;31492;54.856;26.318;2023-04-09T01:11:12;1031.3;;;7.6;65.3
45789;BME280;31492;54.856;26.318;2023-04-09T01:15:58;1031.3;;;7.4;65.7
45789;BME280;31492;54.856;26.318;2023-04-09T01:21:15;1031.3;;;7.4;65.6
45789;BME280;31492;54.856;26.318;2023-04-09T01:26:44;1031.3;;;7.3;65.8
45789;BME280;31492;54.856;26.318;2023-04-09T01:31:10;1031.3;;;7.2;66.3
45789;BME280;31492;54.856;26.318;2023-04-09T01:35:57;1031.4;;;7.2;66.1
45789;BME280;31492;54.856;26.318;2023-04-09T01:40:58;1031.3;;;7.3;65.9
45789;BME280;31492;54.856;26.318;2023-04-09T01:46:13;1031.4;;;7;66.7
45789;BME280;31492;54.856;26.318;2023-04-09T01:50:57;1031.4;;;6.8;67.7
45789;BME280;31492;54.856;26.318;2023-04-09T01:56:25;1031.4;;;6.8;67.7
45789;BME280;31492;54.856;26.318;2023-04-09T02:01:18;1031.5;;;6.7;67.5
45789;BME280;31492;54.856;26.318;2023-04-09T02:06:27;1031.5;;;6.8;67.5
45789;BME280;31492;54.856;26.318;2023-04-09T02:10:57;1031.5;;;6.7;67.6
45789;BME280;31492;54.856;26.318;2023-04-09T02:16:03;1031.6;;;6.5;68
45789;BME280;31492;54.856;26.318;2023-04-09T02:20:57;1031.6;;;6.4;68.3
45789;BME280;31492;54.856;26.318;2023-04-09T02:26:17;1031.6;;;6.4;68.3
45789;BME280;31492;54.856;26.318;2023-04-09T02:31:07;1031.6;;;6.5;67.8
45789;BME280;31492;54.856;26.318;2023-04-09T02:36:09;1031.5;;;6.5;67.6
45789;BME280;31492;54.856;26.318;2023-04-09T02:41:05;1031.5;;;6.5;67.5
45789;BME280;31492;54.856;26.318;2023-04-09T02:45:57;1031.6;;;6.6;66.9
45789;BME280;31492;54.856;26.318;2023-04-09T02:50:57;1031.6;;;6.6;66.6
45789;BME280;31492;54.856;26.318;2023-04-09T02:55:57;1031.7;;;6.4;66.8
45789;BME280;31492;54.856;26.318;2023-04-09T03:00:57;1031.7;;;6.3;67.4
45789;BME280;31492;54.856;26.318;2023-04-09T03:05:57;1031.8;;;6.1;68.2
45789;BME280;31492;54.856;26.318;2023-04-09T03:11:13;1031.8;;;5.9;68.9
45789;BME280;31492;54.856;26.318;2023-04-09T03:15:57;1031.7;;;5.9;69.2
45789;BME280;31492;54.856;26.318;2023-04-09T03:21:07;1031.7;;;6;69.1
45789;BME280;31492;54.856;26.318;2023-04-09T03:26:13;1031.7;;;6;68.7
45789;BME280;31492;54.856;26.318;2023-04-09T03:30:57;1031.7;;;6;68.8
45789;BME280;31492;54.856;26.318;2023-04-09T03:36:13;1031.7;;;6.1;68.7
45789;BME280;31492;54.856;26.318;2023-04-09T03:41:09;1031.8;;;6;69
45789;BME280;31492;54.856;26.318;2023-04-09T03:46:10;1031.8;;;6;69.3
45789;BME280;31492;54.856;26.318;2023-04-09T03:50:57;1031.8;;;6.1;69
45789;BME280;31492;54.856;26.318;2023-04-09T03:56:15;1031.8;;;6.3;68.6
45789;BME280;31492;54.856;26.318;2023-04-09T04:01:11;1031.8;;;6.3;68.4
45789;BME280;31492;54.856;26.318;2023-04-09T04:06:15;1031.8;;;6.5;68
45789;BME280;31492;54.856;26.318;2023-04-09T04:11:01;1031.9;;;6.7;67.6
45789;BME280;31492;54.856;26.318;2023-04-09T04:16:09;1031.9;;;6.7;67.4
45789;BME280;31492;54.856;26.318;2023-04-09T04:21:17;1031.9;;;6.7;67.4
45789;BME280;31492;54.856;26.318;2023-04-09T04:26:33;1031.8;;;6.8;67.3
45789;BME280;31492;54.856;26.318;2023-04-09T04:31:31;1031.9;;;6.8;67.3
45789;BME280;31492;54.856;26.318;2023-04-09T04:36:02;1031.9;;;6.8;67.3
45789;BME280;31492;54.856;26.318;2023-04-09T04:41:13;1031.9;;;6.9;67.5
45789;BME280;31492;54.856;26.318;2023-04-09T04:45:58;1032;;;7;67.4
45789;BME280;31492;54.856;26.318;2023-04-09T04:51:09;1032;;;7.1;67.4
45789;BME280;31492;54.856;26.318;2023-04-09T04:55:57;1032;;;7.2;67.2
45789;BME280;31492;54.856;26.318;2023-04-09T05:01:13;1032;;;7.3;67
45789;BME280;31492;54.856;26.318;2023-04-09T05:06:13;1032;;;7.4;66.9
45789;BME280;31492;54.856;26.318;2023-04-09T05:10:57;1031.9;;;7.5;66.9
45789;BME280;31492;54.856;26.318;2023-04-09T05:15:57;1031.9;;;7.5;67.2
45789;BME280;31492;54.856;26.318;2023-04-09T05:20:57;1031.9;;;7.6;67.4
45789;BME280;31492;54.856;26.318;2023-04-09T05:25:57;1032;;;7.6;67.4
45789;BME280;31492;54.856;26.318;2023-04-09T05:31:25;1032;;;7.8;67.5
45789;BME280;31492;54.856;26.318;2023-04-09T05:35:57;1032;;;7.9;67.4
45789;BME280;31492;54.856;26.318;2023-04-09T05:40:58;1032;;;8.1;67.4
45789;BME280;31492;54.856;26.318;2023-04-09T05:46:03;1032;;;8.4;67.2
45789;BME280;31492;54.856;26.318;2023-04-09T05:50:57;1032;;;8.8;67.3
45789;BME280;31492;54.856;26.318;2023-04-09T05:55:57;1032;;;9;68
45789;BME280;31492;54.856;26.318;2023-04-09T06:00:57;1032.1;;;9.1;68.6
45789;BME280;31492;54.856;26.318;2023-04-09T06:06:09;1032.1;;;9.4;68.4
45789;BME280;31492;54.856;26.318;2023-04-09T06:10:57;1032.1;;;9.7;67.8
45789;BME280;31492;54.856;26.318;2023-04-09T06:15:57;1032.1;;;10;67.8
45789;BME280;31492;54.856;26.318;2023-04-09T06:21:13;1032.2;;;10.3;67.5
45789;BME280;31492;54.856;26.318;2023-04-09T06:26:45;1032.1;;;10.6;67
45789;BME280;31492;54.856;26.318;2023-04-09T06:31:25;1032.2;;;10.8;67
45789;BME280;31492;54.856;26.318;2023-04-09T06:35:57;1032.2;;;11.1;66.8
45789;BME280;31492;54.856;26.318;2023-04-09T06:41:25;1032.2;;;11.4;66.3
45789;BME280;31492;54.856;26.318;2023-04-09T06:45:57;1032.3;;;11.5;66.2
45789;BME280;31492;54.856;26.318;2023-04-09T06:51:05;1032.3;;;11.8;66.1
45789;BME280;31492;54.856;26.318;2023-04-09T06:55:57;1032.3;;;12.1;65.8
45789;BME280;31492;54.856;26.318;2023-04-09T07:01:09;1032.3;;;12.4;65.6
45789;BME280;31492;54.856;26.318;2023-04-09T07:05:57;1032.3;;;12.6;65.4
45789;BME280;31492;54.856;26.318;2023-04-09T07:11:15;1032.3;;;12.9;65.3
45789;BME280;31492;54.856;26.318;2023-04-09T07:15:57;1032.3;;;13.2;64.9
45789;BME280;31492;54.856;26.318;2023-04-09T07:21:13;1032.3;;;13.5;64.8
45789;BME280;31492;54.856;26.318;2023-04-09T07:26:00;1032.3;;;13.8;63.8
45789;BME280;31492;54.856;26.318;2023-04-09T07:31:23;1032.3;;;14.3;63.7
45789;BME280;31492;54.856;26.318;2023-04-09T07:36:17;1032.3;;;14.6;62.4
45789;BME280;31492;54.856;26.318;2023-04-09T07:41:39;1032.3;;;15.1;61.8
45789;BME280;31492;54.856;26.318;2023-04-09T07:45:57;1032.3;;;15.9;60.8
45789;BME280;31492;54.856;26.318;2023-04-09T07:50:57;1032.3;;;16.9;59.1
45789;BME280;31492;54.856;26.318;2023-04-09T07:55:57;1032.3;;;17.8;57.1
45789;BME280;31492;54.856;26.318;2023-04-09T08:01:05;1032.3;;;18.7;55.1
45789;BME280;31492;54.856;26.318;2023-04-09T08:06:33;1032.2;;;19.2;52.5
45789;BME280;31492;54.856;26.318;2023-04-09T08:11:09;1032.2;;;19.7;50.5
45789;BME280;31492;54.856;26.318;2023-04-09T08:16:15;1032.1;;;20;49.4
45789;BME280;31492;54.856;26.318;2023-04-09T08:21:13;1032.1;;;20.3;48
45789;BME280;31492;54.856;26.318;2023-04-09T08:25:57;1032;;;20.7;47.3
45789;BME280;31492;54.856;26.318;2023-04-09T08:31:03;1032;;;21.3;46.1
45789;BME280;31492;54.856;26.318;2023-04-09T08:35:57;1031.9;;;21.8;45.3
45789;BME280;31492;54.856;26.318;2023-04-09T08:41:18;1031.9;;;22.2;43.1
45789;BME280;31492;54.856;26.318;2023-04-09T08:45:57;1032;;;22.5;42.1
45789;BME280;31492;54.856;26.318;2023-04-09T08:50:57;1032;;;22.8;41.4
45789;BME280;31492;54.856;26.318;2023-04-09T08:56:15;1031.9;;;23.3;41.1
45789;BME280;31492;54.856;26.318;2023-04-09T09:01:26;1031.9;;;23.2;40.4
45789;BME280;31492;54.856;26.318;2023-04-09T09:06:19;1031.9;;;23.7;40.2
45789;BME280;31492;54.856;26.318;2023-04-09T09:10:57;1031.9;;;24.1;39.1
45789;BME280;31492;54.856;26.318;2023-04-09T09:16:10;1031.8;;;23.4;39.3
45789;BME280;31492;54.856;26.318;2023-04-09T09:21:08;1031.8;;;22.8;40
45789;BME280;31492;54.856;26.318;2023-04-09T09:26:10;1031.8;;;22.8;40.1
45789;BME280;31492;54.856;26.318;2023-04-09T09:31:10;1031.8;;;22.7;40.1
45789;BME280;31492;54.856;26.318;2023-04-09T09:35:57;1031.8;;;22.8;39.3
45789;BME280;31492;54.856;26.318;2023-04-09T09:40:57;1031.8;;;22.1;39.5
45789;BME280;31492;54.856;26.318;2023-04-09T09:45:57;1031.8;;;21.6;40.6
45789;BME280;31492;54.856;26.318;2023-04-09T09:50:57;1031.8;;;21.3;41.3
45789;BME280;31492;54.856;26.318;2023-04-09T09:55:57;1031.8;;;20.9;41.9
45789;BME280;31492;54.856;26.318;2023-04-09T10:00:57;1031.8;;;20.6;42.4
45789;BME280;31492;54.856;26.318;2023-04-09T10:06:30;1031.8;;;20.2;43.2
45789;BME280;31492;54.856;26.318;2023-04-09T10:11:05;1031.7;;;20;43.3
45789;BME280;31492;54.856;26.318;2023-04-09T10:16:09;1031.7;;;19.7;43
45789;BME280;31492;54.856;26.318;2023-04-09T10:20:58;1031.7;;;19.6;42.9
45789;BME280;31492;54.856;26.318;2023-04-09T10:26:25;1031.7;;;20.1;43.1
45789;BME280;31492;54.856;26.318;2023-04-09T10:31:09;1031.6;;;20.3;42.4
45789;BME280;31492;54.856;26.318;2023-04-09T10:36:08;1031.6;;;20.4;42.5
45789;BME280;31492;54.856;26.318;2023-04-09T10:41:24;1031.6;;;20.4;42.4
45789;BME280;31492;54.856;26.318;2023-04-09T10:45:57;1031.6;;;20.2;42.3
45789;BME280;31492;54.856;26.318;2023-04-09T10:51:17;1031.6;;;20.2;42.4
45789;BME280;31492;54.856;26.318;2023-04-09T10:56:13;1031.5;;;20.2;42.7
45789;BME280;31492;54.856;26.318;2023-04-09T11:01:19;1031.5;;;20.4;42.3
45789;BME280;31492;54.856;26.318;2023-04-09T11:06:13;1031.4;;;21.2;41.8
45789;BME280;31492;54.856;26.318;2023-04-09T11:11:13;1031.4;;;21.3;41.5
45789;BME280;31492;54.856;26.318;2023-04-09T11:16:21;1031.4;;;21.3;40.5
45789;BME280;31492;54.856;26.318;2023-04-09T11:21:09;1031.4;;;21;40.4
45789;BME280;31492;54.856;26.318;2023-04-09T11:25:57;1031.5;;;20.6;41
45789;BME280;31492;54.856;26.318;2023-04-09T11:31:13;1031.5;;;20.3;41.4
45789;BME280;31492;54.856;26.318;2023-04-09T11:35:57;1031.5;;;20.1;41.6
45789;BME280;31492;54.856;26.318;2023-04-09T11:40:57;1031.5;;;20;42.1
45789;BME280;31492;54.856;26.318;2023-04-09T11:46:43;1031.4;;;20;42.6
45789;BME280;31492;54.856;26.318;2023-04-09T11:51:03;1031.4;;;20;43.1
45789;BME280;31492;54.856;26.318;2023-04-09T11:55:57;1031.4;;;20;43.1
45789;BME280;31492;54.856;26.318;2023-04-09T12:01:07;1031.3;;;19.8;42.6
45789;BME280;31492;54.856;26.318;2023-04-09T12:05:58;1031.3;;;19.6;42.8
45789;BME280;31492;54.856;26.318;2023-04-09T12:11:06;1031.3;;;19.5;41.7
45789;BME280;31492;54.856;26.318;2023-04-09T12:16:05;1031.2;;;19.4;40.2
45789;BME280;31492;54.856;26.318;2023-04-09T12:20:57;1031.2;;;19.4;40.3
45789;BME280;31492;54.856;26.318;2023-04-09T12:26:05;1031.2;;;19.6;41
45789;BME280;31492;54.856;26.318;2023-04-09T12:30:57;1031.2;;;19.8;40.7
45789;BME280;31492;54.856;26.318;2023-04-09T12:35:57;1031.2;;;20.1;39.8
45789;BME280;31492;54.856;26.318;2023-04-09T12:41:13;1031.1;;;20.3;39.1
45789;BME280;31492;54.856;26.318;2023-04-09T12:45:57;1031.1;;;20.2;39.8
45789;BME280;31492;54.856;26.318;2023-04-09T12:50:57;1031.1;;;20.4;38.9
45789;BME280;31492;54.856;26.318;2023-04-09T12:55:57;1031;;;20.2;38.4
45789;BME280;31492;54.856;26.318;2023-04-09T13:01:09;1031.1;;;19.9;39.1
45789;BME280;31492;54.856;26.318;2023-04-09T13:05:57;1031;;;20.2;39.5
45789;BME280;31492;54.856;26.318;2023-04-09T13:10:57;1031;;;20.7;38.3
45789;BME280;31492;54.856;26.318;2023-04-09T13:16:07;1030.9;;;21.2;38.4
45789;BME280;31492;54.856;26.318;2023-04-09T13:21:29;1030.9;;;21.4;37.8
45789;BME280;31492;54.856;26.318;2023-04-09T13:26:09;1031;;;21.4;38.4
45789;BME280;31492;54.856;26.318;2023-04-09T13:31:04;1031;;;20.9;37.7
45789;BME280;31492;54.856;26.318;2023-04-09T13:36:09;1031.1;;;20.4;38.6
45789;BME280;31492;54.856;26.318;2023-04-09T13:40:57;1031.1;;;20;39.2
45789;BME280;31492;54.856;26.318;2023-04-09T13:45:57;1031.2;;;19.7;40.2
45789;BME280;31492;54.856;26.318;2023-04-09T13:51:06;1031.3;;;19.4;41.3
45789;BME280;31492;54.856;26.318;2023-04-09T13:55:57;1031.4;;;19;42.3
45789;BME280;31492;54.856;26.318;2023-04-09T14:01:12;1031.7;;;18.3;44.7
45789;BME280;31492;54.856;26.318;2023-04-09T14:06:15;1031.7;;;17.4;46.6
45789;BME280;31492;54.856;26.318;2023-04-09T14:11:22;1031.7;;;16.6;48.9
45789;BME280;31492;54.856;26.318;2023-04-09T14:15:57;1031.7;;;16;51.4
45789;BME280;31492;54.856;26.318;2023-04-09T14:20:57;1031.6;;;15.6;53.2
45789;BME280;31492;54.856;26.318;2023-04-09T14:25:57;1031.6;;;15.4;54.3
45789;BME280;31492;54.856;26.318;2023-04-09T14:31:04;1031.6;;;15.2;55.9
45789;BME280;31492;54.856;26.318;2023-04-09T14:36:25;1031.5;;;15;57
45789;BME280;31492;54.856;26.318;2023-04-09T14:41:18;1031.5;;;14.9;57.4
45789;BME280;31492;54.856;26.318;2023-04-09T14:46:24;1031.5;;;14.9;57.7
45789;BME280;31492;54.856;26.318;2023-04-09T14:51:11;1031.4;;;14.8;58.7
45789;BME280;31492;54.856;26.318;2023-04-09T14:56:06;1031.4;;;14.8;59.2
45789;BME280;31492;54.856;26.318;2023-04-09T15:00:57;1031.3;;;14.9;59.4
45789;BME280;31492;54.856;26.318;2023-04-09T15:06:18;1031.3;;;14.8;60
45789;BME280;31492;54.856;26.318;2023-04-09T15:11:13;1031.3;;;14.8;60.9
45789;BME280;31492;54.856;26.318;2023-04-09T15:15:58;1031.3;;;14.9;61.1
45789;BME280;31492;54.856;26.318;2023-04-09T15:20:57;1031.3;;;14.9;61.7
45789;BME280;31492;54.856;26.318;2023-04-09T15:26:08;1031.2;;;15;61.7
45789;BME280;31492;54.856;26.318;2023-04-09T15:30:58;1031.2;;;15.1;61.8
45789;BME280;31492;54.856;26.318;2023-04-09T15:35:58;1031.2;;;15;63.1
45789;BME280;31492;54.856;26.318;2023-04-09T15:41:09;1031.2;;;14.8;65.1
45789;BME280;31492;54.856;26.318;2023-04-09T15:46:06;1031.1;;;14.7;65.4
45789;BME280;31492;54.856;26.318;2023-04-09T15:51:08;1031.1;;;14.6;66.4
45789;BME280;31492;54.856;26.318;2023-04-09T15:56:10;1031.1;;;14.5;66
45789;BME280;31492;54.856;26.318;2023-04-09T16:01:08;1031.1;;;14.6;65.6
45789;BME280;31492;54.856;26.318;2023-04-09T16:05:58;1031;;;14.7;65
45789;BME280;31492;54.856;26.318;2023-04-09T16:11:04;1031.1;;;14.6;64.9
45789;BME280;31492;54.856;26.318;2023-04-09T16:16:08;1031.1;;;14.6;64.8
45789;BME280;31492;54.856;26.318;2023-04-09T16:20:58;1031.1;;;14.6;65.1
45789;BME280;31492;54.856;26.318;2023-04-09T16:25:58;1031.2;;;14.4;66.4
45789;BME280;31492;54.856;26.318;2023-04-09T16:31:14;1031.3;;;14.2;66.5
45789;BME280;31492;54.856;26.318;2023-04-09T16:36:14;1031.3;;;14.2;66.5
45789;BME280;31492;54.856;26.318;2023-04-09T16:41:06;1031.4;;;14.1;67.3
45789;BME280;31492;54.856;26.318;2023-04-09T16:45:58;1031.4;;;14;67.7
45789;BME280;31492;54.856;26.318;2023-04-09T16:51:18;1031.5;;;14;67.4
45789;BME280;31492;54.856;26.318;2023-04-09T16:55:58;1031.5;;;14;66.5
45789;BME280;31492;54.856;26.318;2023-04-09T17:01:14;1031.6;;;14;66.3
45789;BME280;31492;54.856;26.318;2023-04-09T17:06:08;1031.6;;;13.8;66.8
45789;BME280;31492;54.856;26.318;2023-04-09T17:11:30;1031.7;;;13.6;67.1
45789;BME280;31492;54.856;26.318;2023-04-09T17:16:06;1031.7;;;13.5;67.1
45789;BME280;31492;54.856;26.318;2023-04-09T17:20:58;1031.8;;;13.3;67.6
45789;BME280;31492;54.856;26.318;2023-04-09T17:26:20;1031.8;;;13.1;67.8
45789;BME280;31492;54.856;26.318;2023-04-09T17:31:10;1031.9;;;13.1;67.7
45789;BME280;31492;54.856;26.318;2023-04-09T17:36:10;1031.9;;;12.8;68.5
45789;BME280;31492;54.856;26.318;2023-04-09T17:40:58;1032;;;12.6;68.8
45789;BME280;31492;54.856;26.318;2023-04-09T17:45:58;1032;;;12.6;68.9
45789;BME280;31492;54.856;26.318;2023-04-09T17:51:46;1032;;;12.5;68.5
45789;BME280;31492;54.856;26.318;2023-04-09T17:56:18;1032;;;12.5;68.1
45789;BME280;31492;54.856;26.318;2023-04-09T18:01:18;1032;;;12.3;68.5
45789;BME280;31492;54.856;26.318;2023-04-09T18:06:18;1032;;;12.1;68.9
45789;BME280;31492;54.856;26.318;2023-04-09T18:11:14;1032;;;12;68.9
45789;BME280;31492;54.856;26.318;2023-04-09T18:15:58;1032.1;;;12;68.4
45789;BME280;31492;54.856;26.318;2023-04-09T18:20:58;1032.1;;;11.9;68.6
45789;BME280;31492;54.856;26.318;2023-04-09T18:26:10;1032.1;;;11.7;68.9
45789;BME280;31492;54.856;26.318;2023-04-09T18:31:26;1032.1;;;11.7;68.5
45789;BME280;31492;54.856;26.318;2023-04-09T18:36:18;1032.1;;;11.7;68.4
45789;BME280;31492;54.856;26.318;2023-04-09T18:41:19;1032.1;;;11.7;68.4
45789;BME280;31492;54.856;26.318;2023-04-09T18:46:08;1032.1;;;11.7;68.3
45789;BME280;31492;54.856;26.318;2023-04-09T18:50:58;1032.2;;;11.6;68.5
45789;BME280;31492;54.856;26.318;2023-04-09T18:56:36;1032.2;;;11.5;68.2
45789;BME280;31492;54.856;26.318;2023-04-09T19:01:12;1032.2;;;11.4;68.2
45789;BME280;31492;54.856;26.318;2023-04-09T19:06:18;1032.2;;;11.4;67.9
45789;BME280;31492;54.856;26.318;2023-04-09T19:11:10;1032.3;;;11.5;67.8
45789;BME280;31492;54.856;26.318;2023-04-09T19:15:58;1032.3;;;11.3;67.8
45789;BME280;31492;54.856;26.318;2023-04-09T19:20:58;1032.3;;;11.3;67.8
45789;BME280;31492;54.856;26.318;2023-04-09T19:26:14;1032.3;;;11.2;68.3
45789;BME280;31492;54.856;26.318;2023-04-09T19:30:58;1032.3;;;11.2;68.5
45789;BME280;31492;54.856;26.318;2023-04-09T19:36:20;1032.3;;;11.1;68.4
45789;BME280;31492;54.856;26.318;2023-04-09T19:41:10;1032.4;;;11;68
45789;BME280;31492;54.856;26.318;2023-04-09T19:45:58;1032.4;;;10.9;67.9
45789;BME280;31492;54.856;26.318;2023-04-09T19:50:58;1032.4;;;10.8;68.1
45789;BME280;31492;54.856;26.318;2023-04-09T19:56:34;1032.3;;;10.8;68.1
45789;BME280;31492;54.856;26.318;2023-04-09T20:01:14;1032.3;;;10.8;68
45789;BME280;31492;54.856;26.318;2023-04-09T20:06:10;1032.3;;;10.8;68.2
45789;BME280;31492;54.856;26.318;2023-04-09T20:10:58;1032.3;;;10.7;68.2
45789;BME280;31492;54.856;26.318;2023-04-09T20:16:14;1032.3;;;10.7;68.3
45789;BME280;31492;54.856;26.318;2023-04-09T20:21:20;1032.3;;;10.7;68.3
45789;BME280;31492;54.856;26.318;2023-04-09T20:26:34;1032.3;;;10.6;68.3
45789;BME280;31492;54.856;26.318;2023-04-09T20:30:58;1032.3;;;10.6;68.4
45789;BME280;31492;54.856;26.318;2023-04-09T20:35:58;1032.3;;;10.5;68.3
45789;BME280;31492;54.856;26.318;2023-04-09T20:41:14;1032.3;;;10.4;68.2
45789;BME280;31492;54.856;26.318;2023-04-09T20:46:14;1032.2;;;10.4;68.3
45789;BME280;31492;54.856;26.318;2023-04-09T20:51:20;1032.2;;;10.4;68.3
45789;BME280;31492;54.856;26.318;2023-04-09T20:56:10;1032.2;;;10.3;68.3
45789;BME280;31492;54.856;26.318;2023-04-09T21:01:01;1032.2;;;10.2;68.2
45789;BME280;31492;54.856;26.318;2023-04-09T21:06:18;1032.2;;;10.1;68.1
45789;BME280;31492;54.856;26.318;2023-04-09T21:11:20;1032.2;;;10.1;68
45789;BME280;31492;54.856;26.318;2023-04-09T21:16:20;1032.3;;;10.1;68.2
45789;BME280;31492;54.856;26.318;2023-04-09T21:20:58;1032.3;;;10;68.5
45789;BME280;31492;54.856;26.318;2023-04-09T21:26:08;1032.3;;;9.9;68.6
45789;BME280;31492;54.856;26.318;2023-04-09T21:31:14;1032.3;;;9.9;68.5
45789;BME280;31492;54.856;26.318;2023-04-09T21:35:58;1032.3;;;9.8;68.6
45789;BME280;31492;54.856;26.318;2023-04-09T21:41:14;1032.3;;;9.8;68.6
45789;BME280;31492;54.856;26.318;2023-04-09T21:46:10;1032.3;;;9.7;68.5
45789;BME280;31492;54.856;26.318;2023-04-09T21:50:58;1032.3;;;9.6;68.5
45789;BME280;31492;54.856;26.318;2023-04-09T21:56:14;1032.3;;;9.5;68.5
45789;BME280;31492;54.856;26.318;2023-04-09T22:01:14;1032.3;;;9.5;68.3
45789;BME280;31492;54.856;26.318;2023-04-09T22:06:20;1032.3;;;9.4;68.4
45789;BME280;31492;54.856;26.318;2023-04-09T22:10:58;1032.3;;;9.4;68.2
45789;BME280;31492;54.856;26.318;2023-04-09T22:16:36;1032.2;;;9.3;68
45789;BME280;31492;54.856;26.318;2023-04-09T22:21:12;1032.3;;;9.2;68.1
45789;BME280;31492;54.856;26.318;2023-04-09T22:26:32;1032.3;;;9.2;68.2
45789;BME280;31492;54.856;26.318;2023-04-09T22:31:14;1032.2;;;9.2;68.1
45789;BME280;31492;54.856;26.318;2023-04-09T22:35:58;1032.2;;;9.2;68.2
45789;BME280;31492;54.856;26.318;2023-04-09T22:40:58;1032.2;;;9.2;68.1
45789;BME280;31492;54.856;26.318;2023-04-09T22:45:58;1032.2;;;9.1;68.1
45789;BME280;31492;54.856;26.318;2023-04-09T22:51:04;1032.2;;;9;68.1
45789;BME280;31492;54.856;26.318;2023-04-09T22:55:58;1032.2;;;9;68.3
45789;BME280;31492;54.856;26.318;2023-04-09T23:01:10;1032.2;;;8.9;68.4
45789;BME280;31492;54.856;26.318;2023-04-09T23:05:58;1032.2;;;8.9;68.3
45789;BME280;31492;54.856;26.318;2023-04-09T23:10:58;1032.2;;;8.8;68.9
45789;BME280;31492;54.856;26.318;2023-04-09T23:16:04;1032.2;;;8.7;69.2
45789;BME280;31492;54.856;26.318;2023-04-09T23:21:20;1032.2;;;8.5;69.6
45789;BME280;31492;54.856;26.318;2023-04-09T23:25:58;1032.2;;;8.5;69.4
45789;BME280;31492;54.856;26.318;2023-04-09T23:31:20;1032.1;;;8.4;69.3
45789;BME280;31492;54.856;26.318;2023-04-09T23:36:34;1032.1;;;8.2;69.3
45789;BME280;31492;54.856;26.318;2023-04-09T23:40:58;1032.1;;;8.1;69.2
45789;BME280;31492;54.856;26.318;2023-04-09T23:46:20;1032;;;8.1;69
45789;BME280;31492;54.856;26.318;2023-04-09T23:51:15;1032;;;8;68.9
45789;BME280;31492;54.856;26.318;2023-04-09T23:55:58;1032;;;8;68.7
